ZLXY/XIY METAR and TAF weather

Enter ICAO airport designator
Station Type Date Time Source
ZLXY METAR 2019/07/20 20:00 UTC NOAA

ZLXY 202000Z 02002MPS 340V060 CAVOK 24/23 Q1004 NOSIG


Station Type Date Time Source
ZLXY Decoded METAR 2019/07/20 20:00 UTC NOAA

Xian/Xianyang, China (ZLXY) 34-26N 108-45E
Jul 20, 2019 - 04:00 PM EDT / 2019.07.20 2000 UTC
Wind: from the NNE (020 degrees) at 4 MPH (4 KT) (direction variable):0
Visibility: greater than 7 mile(s):0
Temperature: 75 F (24 C)
Dew Point: 73 F (23 C)
Relative Humidity: 94%
Pressure (altimeter): 29.65 in. Hg (1004 hPa)
ob: ZLXY 202000Z 02002MPS 340V060 CAVOK 24/23 Q1004 NOSIG
cycle: 20

Station Type Date Time Source
ZLXY TAF 2019/07/20 18:03 UTC NOAA

TAF ZLXY 201524Z 2018/2118 06003MPS 3000 HZ NSC TX34/2108Z TN23/2021Z
TEMPO 2110/2116 -TSRA FEW040CB

Example: see airport list